Time;durP1;ratioP1;P1;durP2;ratioP2;P2;SDS_P1;SDS_P2;PMS_P1;PMS_P2;Temp;Humidity;BMP_temperature;BMP_pressure;BME280_temperature;BME280_humidity;BME280_pressure;Samples;Min_cycle;Max_cycle;Signal;HPM_P1;HPM_P2
2022/01/02 00:00:33;;;;;;;4.05;2.35;;;;;;;16.65;50.68;101485.19;5038757;28;20132;-71
2022/01/02 00:03:04;;;;;;;3.72;2.50;;;;;;;16.66;50.17;101486.06;5037932;28;20067;-71
2022/01/02 00:05:34;;;;;;;3.78;2.25;;;;;;;16.64;50.88;101479.84;5031703;28;20394;-71
2022/01/02 00:08:03;;;;;;;4.75;2.38;;;;;;;16.62;50.60;101490.97;5033120;28;20045;-72
2022/01/02 00:10:57;;;;;;;4.88;2.50;;;;;;;16.61;50.32;101489.22;5038911;28;20362;-71
2022/01/02 00:13:31;;;;;;;4.13;2.35;;;;;;;16.60;50.72;101492.03;5045265;28;20037;-72
2022/01/02 00:16:04;;;;;;;3.90;2.20;;;;;;;16.59;50.73;101466.50;5037309;28;20135;-71
2022/01/02 00:18:34;;;;;;;4.72;2.58;;;;;;;16.60;50.47;101464.63;5043878;28;20558;-71
2022/01/02 00:21:08;;;;;;;4.57;2.80;;;;;;;16.62;50.66;101471.75;5041867;28;20513;-71
2022/01/02 00:23:49;;;;;;;4.70;2.63;;;;;;;16.60;50.58;101478.31;5029478;28;20137;-71
2022/01/02 00:26:17;;;;;;;5.82;3.00;;;;;;;16.59;50.66;101480.19;5043346;28;20045;-72
2022/01/02 00:28:48;;;;;;;5.22;2.45;;;;;;;16.61;50.57;101488.34;5040151;28;20077;-71
2022/01/02 00:31:15;;;;;;;5.40;2.72;;;;;;;16.59;50.50;101482.06;5038865;28;20045;-71
2022/01/02 00:33:42;;;;;;;6.30;2.97;;;;;;;16.59;50.48;101476.59;5026753;28;20148;-71
2022/01/02 00:36:09;;;;;;;4.43;2.50;;;;;;;16.59;50.74;101493.91;5030471;28;20128;-71
2022/01/02 00:38:38;;;;;;;3.63;2.40;;;;;;;16.60;50.31;101489.28;5037995;28;20087;-71
2022/01/02 00:41:05;;;;;;;4.75;2.35;;;;;;;16.58;50.60;101486.69;5034689;28;20049;-71
2022/01/02 00:43:45;;;;;;;4.95;2.58;;;;;;;16.62;50.30;101484.59;5030084;28;20118;-72
2022/01/02 00:46:13;;;;;;;3.47;2.25;;;;;;;16.60;50.83;101484.69;5035509;28;20131;-71
2022/01/02 00:48:44;;;;;;;5.38;2.83;;;;;;;16.61;50.26;101491.06;5041617;28;20045;-71
2022/01/02 00:51:27;;;;;;;5.68;2.65;;;;;;;16.63;50.38;101494.56;5035700;28;20171;-71
2022/01/02 00:53:57;;;;;;;4.45;2.38;;;;;;;16.58;50.84;101500.38;5038536;28;20422;-71
2022/01/02 00:56:27;;;;;;;4.97;2.80;;;;;;;16.61;50.55;101496.56;5039340;28;20128;-72
2022/01/02 00:58:59;;;;;;;5.00;2.45;;;;;;;16.64;50.64;101507.25;5029957;28;20041;-72
2022/01/02 01:01:33;;;;;;;4.22;2.63;;;;;;;16.62;50.40;101499.19;5035113;28;20668;-72
2022/01/02 01:04:02;;;;;;;6.18;2.60;;;;;;;16.64;50.37;101491.69;5034019;28;20041;-72
2022/01/02 01:06:33;;;;;;;5.57;2.65;;;;;;;16.67;50.78;101496.91;5037077;28;20864;-72
2022/01/02 01:09:05;;;;;;;4.95;2.83;;;;;;;16.68;50.33;101501.41;5036249;28;20506;-73
2022/01/02 01:11:32;;;;;;;5.43;2.30;;;;;;;16.65;50.86;101506.25;5041742;28;20048;-72
2022/01/02 01:14:00;;;;;;;4.43;2.72;;;;;;;16.69;50.55;101503.16;5035481;28;20051;-72
2022/01/02 01:16:26;;;;;;;5.28;2.95;;;;;;;16.70;50.40;101495.81;5041861;28;20072;-72
2022/01/02 01:18:53;;;;;;;4.25;2.53;;;;;;;16.69;50.30;101494.06;5039992;28;20045;-72
2022/01/02 01:21:20;;;;;;;3.90;2.30;;;;;;;16.70;50.25;101501.28;5042113;28;20474;-73
2022/01/02 01:23:47;;;;;;;5.22;3.03;;;;;;;16.70;50.08;101504.91;5035821;28;20054;-72
2022/01/02 01:26:16;;;;;;;4.22;2.40;;;;;;;16.70;50.43;101498.56;5043784;28;20111;-72
2022/01/02 01:28:43;;;;;;;4.57;2.47;;;;;;;16.70;50.52;101491.19;5042903;28;20549;-72
2022/01/02 01:31:09;;;;;;;4.60;2.42;;;;;;;16.70;50.32;101477.50;5033580;28;20048;-73
2022/01/02 01:33:36;;;;;;;4.47;2.45;;;;;;;16.71;50.20;101489.34;5029997;28;20128;-72
2022/01/02 01:36:02;;;;;;;4.10;2.72;;;;;;;16.70;50.22;101491.19;5034980;28;20139;-72
2022/01/02 01:38:29;;;;;;;4.15;3.08;;;;;;;16.71;50.24;101497.56;5039558;28;20071;-72
2022/01/02 01:41:06;;;;;;;4.43;2.65;;;;;;;16.74;49.93;101506.38;5038827;28;20148;-72
2022/01/02 01:43:52;;;;;;;5.00;2.60;;;;;;;16.72;50.20;101497.41;5037010;28;20057;-72
2022/01/02 01:46:19;;;;;;;4.22;2.97;;;;;;;16.70;50.26;101484.84;5035240;28;20133;-72
2022/01/02 01:48:51;;;;;;;5.35;2.90;;;;;;;16.74;50.02;101487.19;5037107;28;20050;-72
2022/01/02 01:51:17;;;;;;;4.03;2.55;;;;;;;16.70;50.18;101477.50;5041033;28;20040;-72
2022/01/02 01:53:44;;;;;;;5.57;2.95;;;;;;;16.68;50.16;101482.22;5043417;28;20098;-72
2022/01/02 01:56:10;;;;;;;4.95;3.00;;;;;;;16.69;50.21;101475.75;5034704;28;20514;-72
2022/01/02 01:58:37;;;;;;;5.15;3.15;;;;;;;16.68;50.33;101464.88;5031700;28;20128;-72
2022/01/02 02:01:04;;;;;;;4.60;2.75;;;;;;;16.66;50.07;101451.31;5029711;28;20048;-72
2022/01/02 02:03:31;;;;;;;4.50;2.88;;;;;;;16.67;49.95;101441.22;5032952;28;20481;-72
2022/01/02 02:05:58;;;;;;;4.55;2.80;;;;;;;16.66;49.83;101448.56;5030985;28;20051;-72
2022/01/02 02:08:26;;;;;;;4.25;2.80;;;;;;;16.65;50.22;101462.38;5043878;28;20132;-72
2022/01/02 02:10:56;;;;;;;5.10;3.10;;;;;;;16.66;49.98;101451.31;5034956;28;20064;-72
2022/01/02 02:13:24;;;;;;;4.18;2.85;;;;;;;16.64;50.11;101453.28;5042829;28;20040;-72
2022/01/02 02:15:51;;;;;;;4.68;2.78;;;;;;;16.62;50.27;101458.06;5041529;28;20499;-72
2022/01/02 02:18:18;;;;;;;5.10;2.95;;;;;;;16.62;50.37;101451.69;5042016;28;20061;-72
2022/01/02 02:20:45;;;;;;;4.43;2.72;;;;;;;16.60;50.25;101464.63;5039653;28;20131;-72
2022/01/02 02:23:13;;;;;;;4.70;2.75;;;;;;;16.62;49.93;101455.31;5035738;28;20131;-72
2022/01/02 02:25:42;;;;;;;5.32;2.80;;;;;;;16.59;50.30;101465.63;5035303;28;20132;-72
2022/01/02 02:28:14;;;;;;;4.80;2.85;;;;;;;16.62;50.06;101462.66;5043775;28;20465;-73
2022/01/02 02:30:44;;;;;;;5.05;2.78;;;;;;;16.60;50.06;101454.53;5043207;28;20092;-72
2022/01/02 02:33:11;;;;;;;4.43;2.75;;;;;;;16.61;50.05;101452.69;5042696;28;20095;-72
2022/01/02 02:35:39;;;;;;;3.97;2.20;;;;;;;16.63;50.13;101447.97;5043190;28;20045;-72
2022/01/02 02:38:08;;;;;;;4.43;2.60;;;;;;;16.63;50.58;101442.47;5045475;28;20059;-72
2022/01/02 02:40:37;;;;;;;5.63;2.90;;;;;;;16.64;50.46;101431.34;5045177;28;20143;-72
2022/01/02 02:51:12;;;;;;;4.78;2.72;;;;;;;16.62;50.03;101396.88;5031432;28;20069;-72
2022/01/02 02:53:41;;;;;;;4.72;2.72;;;;;;;16.58;50.22;101398.94;5039870;28;20064;-72
2022/01/02 02:56:25;;;;;;;4.80;2.90;;;;;;;16.56;50.22;101392.72;5040146;28;20134;-72
2022/01/02 02:58:57;;;;;;;4.40;2.65;;;;;;;16.54;49.90;101383.78;5036853;28;20049;-72
2022/01/02 03:01:27;;;;;;;4.68;2.53;;;;;;;16.54;49.70;101381.03;5037706;28;20081;-72
2022/01/02 03:03:55;;;;;;;4.65;2.80;;;;;;;16.52;50.17;101376.66;5036232;28;20049;-72
2022/01/02 03:06:21;;;;;;;4.65;2.75;;;;;;;16.51;50.35;101380.41;5034410;28;20045;-72
2022/01/02 03:08:49;;;;;;;5.15;2.67;;;;;;;16.51;50.04;101384.00;5040835;28;20124;-72
2022/01/02 03:11:19;;;;;;;3.85;2.58;;;;;;;16.50;50.05;101384.13;5035937;28;20045;-72
2022/01/02 03:13:49;;;;;;;4.15;2.80;;;;;;;16.49;49.68;101387.88;5039870;28;20036;-72
2022/01/02 03:16:16;;;;;;;4.22;2.55;;;;;;;16.48;49.95;101394.34;5038088;28;20445;-72
2022/01/02 03:18:43;;;;;;;4.20;2.60;;;;;;;16.46;50.23;101397.25;5042883;28;20071;-72
2022/01/02 03:21:10;;;;;;;3.85;2.45;;;;;;;16.46;49.90;101383.53;5038010;28;20041;-72
2022/01/02 03:23:37;;;;;;;4.80;2.88;;;;;;;16.47;50.25;101378.94;5040395;28;20051;-72
2022/01/02 03:26:05;;;;;;;3.90;2.33;;;;;;;16.46;50.18;101380.78;5035238;28;20390;-72
2022/01/02 03:28:31;;;;;;;4.38;2.50;;;;;;;16.46;49.77;101375.31;5034604;28;20064;-72
2022/01/02 03:30:58;;;;;;;4.30;2.80;;;;;;;16.46;49.94;101380.78;5041743;28;20051;-72
2022/01/02 03:33:24;;;;;;;4.65;2.78;;;;;;;16.46;49.64;101383.53;5036550;28;20053;-72
2022/01/02 03:35:51;;;;;;;4.30;2.70;;;;;;;16.46;49.97;101388.16;5043904;28;20478;-72
2022/01/02 03:38:18;;;;;;;5.18;2.80;;;;;;;16.46;49.82;101379.94;5036775;28;20123;-72
2022/01/02 03:40:44;;;;;;;4.57;2.72;;;;;;;16.47;50.11;101379.78;5046589;28;20136;-72
2022/01/02 03:43:11;;;;;;;4.13;2.50;;;;;;;16.46;49.90;101364.34;5033783;28;20045;-72
2022/01/02 03:45:38;;;;;;;4.25;2.60;;;;;;;16.47;50.08;101359.75;5041394;28;20583;-72
2022/01/02 03:48:04;;;;;;;5.43;2.38;;;;;;;16.48;49.94;101361.47;5035070;28;20045;-72
2022/01/02 03:50:31;;;;;;;5.32;2.65;;;;;;;16.48;50.00;101354.09;5038349;28;20128;-72
2022/01/02 03:52:58;;;;;;;5.65;2.70;;;;;;;16.50;50.21;101345.75;5031015;28;20136;-72
2022/01/02 03:55:24;;;;;;;4.65;2.60;;;;;;;16.51;49.98;101337.41;5034374;28;20409;-72
2022/01/02 03:57:51;;;;;;;4.75;2.53;;;;;;;16.51;50.12;101333.81;5034210;28;20064;-73
2022/01/02 04:00:21;;;;;;;5.45;2.78;;;;;;;16.52;49.82;101322.72;5043802;28;20053;-72
2022/01/02 04:02:47;;;;;;;4.60;2.80;;;;;;;16.51;49.87;101329.19;5039128;28;20115;-71
2022/01/02 04:05:16;;;;;;;5.68;2.80;;;;;;;16.53;49.98;101334.56;5040000;28;20447;-73
2022/01/02 04:07:44;;;;;;;4.50;2.58;;;;;;;16.53;50.10;101323.59;5036688;28;20076;-73
2022/01/02 04:10:14;;;;;;;4.10;2.40;;;;;;;16.54;50.03;101325.34;5041937;28;20537;-73
2022/01/02 04:13:01;;;;;;;4.82;2.72;;;;;;;16.51;49.95;101317.34;5040367;28;20498;-73
2022/01/02 04:15:28;;;;;;;5.10;3.25;;;;;;;16.50;50.07;101315.59;4997232;28;20586;-73
2022/01/02 04:17:54;;;;;;;5.53;2.90;;;;;;;16.51;49.91;101315.47;5019988;28;20415;-73
2022/01/02 04:20:21;;;;;;;4.20;2.70;;;;;;;16.52;50.03;101319.09;5003235;28;20061;-73
2022/01/02 04:22:47;;;;;;;4.60;2.72;;;;;;;16.51;49.71;101320.97;5017167;28;20137;-71
2022/01/02 04:25:14;;;;;;;4.93;2.70;;;;;;;16.51;49.83;101315.47;5018655;28;20046;-71
2022/01/02 04:27:41;;;;;;;4.60;2.55;;;;;;;16.50;49.90;101311.00;5019794;28;20140;-71
2022/01/02 04:30:11;;;;;;;5.50;2.70;;;;;;;16.53;49.78;101318.97;5020619;28;20053;-70
2022/01/02 04:32:37;;;;;;;4.13;2.60;;;;;;;16.52;49.79;101319.09;5019128;28;20458;-71
2022/01/02 04:35:04;;;;;;;4.53;2.60;;;;;;;16.50;50.06;101330.19;5022884;28;20046;-71
2022/01/02 04:37:32;;;;;;;6.28;2.90;;;;;;;16.51;50.07;101331.94;4993775;28;20638;-71
2022/01/02 04:39:58;;;;;;;5.90;3.10;;;;;;;16.50;49.92;101321.09;5014843;28;20042;-71
2022/01/02 04:42:25;;;;;;;3.95;2.47;;;;;;;16.49;50.01;101311.13;5021308;28;20053;-71
2022/01/02 04:44:52;;;;;;;5.40;2.78;;;;;;;16.49;50.16;101309.25;5023407;28;20080;-70
2022/01/02 04:47:18;;;;;;;4.65;2.60;;;;;;;16.51;50.15;101320.09;5021053;28;20511;-70
2022/01/02 04:49:45;;;;;;;4.97;3.00;;;;;;;16.51;50.05;101309.13;5002567;28;20603;-70
2022/01/02 04:52:12;;;;;;;4.68;2.50;;;;;;;16.53;50.22;101309.88;5008425;28;20051;-70
2022/01/02 04:54:38;;;;;;;6.03;2.75;;;;;;;16.54;50.32;101297.91;5041618;28;20055;-69
2022/01/02 04:57:05;;;;;;;5.65;3.08;;;;;;;16.56;50.18;101309.59;5041788;28;20447;-70
2022/01/02 04:59:31;;;;;;;5.35;2.95;;;;;;;16.57;50.46;101305.84;5046098;28;20088;-70
2022/01/02 05:01:58;;;;;;;5.47;3.40;;;;;;;16.57;49.99;101295.78;5033179;28;20410;-70
2022/01/02 05:04:25;;;;;;;5.60;3.20;;;;;;;16.57;49.93;101278.44;5032200;28;20033;-70
2022/01/02 05:06:52;;;;;;;5.05;3.03;;;;;;;16.56;50.07;101277.56;5039839;28;20444;-70
2022/01/02 05:09:18;;;;;;;4.82;2.70;;;;;;;16.53;50.09;101269.63;5031485;28;20045;-70
2022/01/02 05:11:45;;;;;;;5.65;2.90;;;;;;;16.53;49.80;101264.16;5039801;28;20045;-70
2022/01/02 05:14:11;;;;;;;6.45;3.08;;;;;;;16.51;49.93;101262.53;5026178;28;20051;-70
2022/01/02 05:16:38;;;;;;;5.80;3.00;;;;;;;16.50;50.07;101258.03;5036251;28;20143;-70
2022/01/02 05:19:04;;;;;;;4.97;3.08;;;;;;;16.48;49.97;101240.84;5042353;28;20041;-70
2022/01/02 05:21:31;;;;;;;5.63;3.00;;;;;;;16.48;50.02;101254.56;5042816;28;20140;-70
2022/01/02 05:23:57;;;;;;;4.82;3.05;;;;;;;16.46;50.02;101249.25;5040457;28;20132;-70
2022/01/02 05:26:24;;;;;;;4.47;2.90;;;;;;;16.45;50.04;101242.00;5034173;28;20132;-70
2022/01/02 05:28:50;;;;;;;5.30;3.08;;;;;;;16.46;50.08;101231.91;5042841;28;20500;-73
2022/01/02 05:31:17;;;;;;;4.90;3.00;;;;;;;16.43;50.35;101235.78;5037579;28;20038;-72
2022/01/02 05:33:43;;;;;;;5.50;3.08;;;;;;;16.43;50.24;101235.78;5038981;28;20041;-72
2022/01/02 05:36:10;;;;;;;6.97;2.80;;;;;;;16.42;50.46;101227.69;5035594;28;20120;-72
2022/01/02 05:38:37;;;;;;;5.72;3.13;;;;;;;16.41;50.60;101229.56;5033331;28;20446;-72
2022/01/02 05:41:03;;;;;;;4.57;2.92;;;;;;;16.40;50.71;101225.06;5042961;28;20084;-72
2022/01/02 05:43:30;;;;;;;5.55;3.20;;;;;;;16.39;50.53;101226.06;5042431;28;20084;-73
2022/01/02 05:46:03;;;;;;;4.85;3.00;;;;;;;16.40;50.49;101224.19;5054026;28;20139;-72
2022/01/02 05:48:30;;;;;;;;;;;;;;;16.16;51.16;101214.31;5046790;28;20132;-72
2022/01/02 05:50:59;;;;;;;4.47;2.90;;;;;;;16.34;50.56;101207.28;5036334;28;19963;-72
2022/01/02 05:53:25;;;;;;;4.97;2.92;;;;;;;16.37;50.46;101208.91;5042494;28;20447;-72
2022/01/02 05:55:52;;;;;;;5.75;3.40;;;;;;;16.36;50.28;101208.03;5042401;28;20413;-72
2022/01/02 05:58:18;;;;;;;5.20;3.08;;;;;;;16.37;50.40;101206.16;5041709;28;20069;-69
2022/01/02 06:00:45;;;;;;;5.72;3.30;;;;;;;16.34;50.31;101203.69;5043161;28;20141;-72
2022/01/02 06:03:11;;;;;;;5.57;3.17;;;;;;;16.32;50.72;101201.06;5044294;28;20469;-72
2022/01/02 06:05:38;;;;;;;5.07;3.20;;;;;;;16.32;50.79;101200.19;5032334;28;20054;-72
2022/01/02 06:08:04;;;;;;;5.03;3.17;;;;;;;16.31;50.57;101179.28;5046124;28;20503;-69
2022/01/02 06:10:31;;;;;;;5.75;2.83;;;;;;;16.31;50.80;101177.41;5044589;28;20198;-69
2022/01/02 06:12:57;;;;;;;4.97;3.28;;;;;;;16.31;50.95;101171.03;5037026;28;20049;-69
2022/01/02 06:15:24;;;;;;;4.97;3.10;;;;;;;16.31;50.81;101176.53;5040211;28;20055;-69
2022/01/02 06:17:50;;;;;;;6.57;3.45;;;;;;;16.30;51.21;101164.72;5043097;28;20057;-69
2022/01/02 06:20:17;;;;;;;5.82;2.92;;;;;;;16.31;50.88;101171.91;5038680;28;20067;-72
2022/01/02 06:22:44;;;;;;;5.05;3.33;;;;;;;16.30;50.89;101178.44;5043748;28;21759;-72
2022/01/02 06:25:10;;;;;;;5.22;3.03;;;;;;;16.31;50.98;101177.41;5043904;28;20131;-72
2022/01/02 06:27:37;;;;;;;4.63;2.75;;;;;;;16.31;51.20;101171.03;5039863;28;20081;-72
2022/01/02 06:30:04;;;;;;;5.53;3.33;;;;;;;16.31;51.33;101160.09;5046033;28;20049;-72
2022/01/02 06:32:30;;;;;;;6.50;3.05;;;;;;;16.29;51.02;101157.50;5041277;28;20312;-69
2022/01/02 06:34:57;;;;;;;5.80;3.38;;;;;;;16.30;50.88;101142.81;5046321;28;20131;-70
2022/01/02 06:37:23;;;;;;;6.97;3.85;;;;;;;16.30;51.00;101148.28;5043996;28;20080;-70
2022/01/02 06:39:50;;;;;;;5.80;3.00;;;;;;;16.29;51.10;101148.41;5037114;28;20175;-71
2022/01/02 06:42:16;;;;;;;5.97;3.28;;;;;;;16.29;51.13;101145.66;5038745;28;20060;-71
2022/01/02 06:44:43;;;;;;;5.18;3.30;;;;;;;16.27;51.32;101133.97;5042881;28;20609;-70
2022/01/02 06:47:10;;;;;;;5.57;3.40;;;;;;;16.25;51.23;101131.34;5040587;28;20052;-71
2022/01/02 06:49:36;;;;;;;6.70;3.65;;;;;;;16.27;51.44;101128.50;5036284;28;20055;-71
2022/01/02 06:52:04;;;;;;;5.70;3.35;;;;;;;16.26;51.23;101121.25;5039676;28;20061;-71
2022/01/02 06:54:31;;;;;;;6.18;3.50;;;;;;;16.26;51.31;101110.31;5039005;28;20483;-70
2022/01/02 06:56:58;;;;;;;5.32;3.13;;;;;;;16.23;51.26;101097.72;5036985;28;20144;-71
2022/01/02 06:59:24;;;;;;;7.38;3.30;;;;;;;16.23;51.21;101092.25;5038994;28;20068;-71
2022/01/02 07:01:52;;;;;;;6.28;3.63;;;;;;;16.20;51.19;101092.53;5040880;28;20057;-71
2022/01/02 07:04:18;;;;;;;6.07;3.53;;;;;;;16.20;50.96;101086.19;5042459;28;20467;-71
2022/01/02 07:06:45;;;;;;;6.22;4.03;;;;;;;16.17;51.15;101079.09;5039521;28;20072;-71
2022/01/02 07:09:11;;;;;;;5.88;3.30;;;;;;;16.16;51.33;101079.22;5046065;28;20135;-71
2022/01/02 07:11:38;;;;;;;7.38;3.88;;;;;;;16.14;51.42;101087.56;5044495;28;20049;-71
2022/01/02 07:14:04;;;;;;;5.28;3.35;;;;;;;16.13;51.19;101065.81;5042332;28;20039;-71
2022/01/02 07:16:31;;;;;;;6.07;3.45;;;;;;;16.11;51.36;101076.03;5040259;28;20581;-71
2022/01/02 07:18:57;;;;;;;5.28;3.30;;;;;;;16.10;51.21;101072.41;5041835;28;20521;-71
2022/01/02 07:21:24;;;;;;;5.97;3.38;;;;;;;16.09;51.23;101064.31;5031959;28;20040;-71
2022/01/02 07:23:53;;;;;;;5.65;3.40;;;;;;;16.08;51.57;101079.03;5045554;28;20690;-71
2022/01/02 07:26:19;;;;;;;6.65;3.63;;;;;;;16.07;51.65;101075.41;5047264;28;20459;-71
2022/01/02 07:28:46;;;;;;;7.20;3.55;;;;;;;16.05;51.63;101066.47;5036979;28;20042;-71
2022/01/02 07:31:12;;;;;;;6.88;3.78;;;;;;;16.04;51.32;101050.19;5035237;28;20355;-71
2022/01/02 07:33:39;;;;;;;6.63;4.15;;;;;;;16.04;51.45;101048.31;5050761;28;20049;-71
2022/01/02 07:36:05;;;;;;;5.93;3.30;;;;;;;16.03;51.37;101042.94;5038351;28;20048;-71
2022/01/02 07:38:32;;;;;;;7.55;3.53;;;;;;;16.02;51.62;101041.22;5037993;28;20045;-71
2022/01/02 07:40:59;;;;;;;7.40;3.63;;;;;;;16.02;51.59;101031.13;5039591;28;20120;-71
2022/01/02 07:43:25;;;;;;;6.07;3.53;;;;;;;16.03;51.29;101023.78;5039147;28;20057;-71
2022/01/02 07:45:51;;;;;;;5.40;3.80;;;;;;;16.01;51.67;101017.56;5032214;28;20144;-71
2022/01/02 07:48:18;;;;;;;4.90;3.40;;;;;;;16.00;51.69;101005.75;5033944;28;20045;-71
2022/01/02 07:50:45;;;;;;;5.03;3.13;;;;;;;16.01;51.76;101003.88;5031435;28;20599;-71
2022/01/02 07:53:11;;;;;;;5.95;3.50;;;;;;;16.01;51.54;100971.00;5039437;28;20473;-71
2022/01/02 07:55:38;;;;;;;6.13;3.58;;;;;;;16.01;51.87;100949.97;5031124;28;20045;-71
2022/01/02 07:58:10;;;;;;;6.75;3.38;;;;;;;16.01;51.57;100935.41;5041462;28;20322;-71
2022/01/02 08:00:36;;;;;;;6.47;3.70;;;;;;;16.00;51.43;100920.84;5036575;28;20132;-70
2022/01/02 08:03:03;;;;;;;5.85;3.42;;;;;;;16.00;52.02;100929.06;5034380;28;20087;-71
2022/01/02 08:05:31;;;;;;;5.80;3.13;;;;;;;16.01;51.43;100925.31;5037853;28;20045;-71
2022/01/02 08:07:58;;;;;;;5.95;3.33;;;;;;;15.99;51.58;100919.97;5033301;28;20665;-71
2022/01/02 08:10:26;;;;;;;6.22;3.20;;;;;;;16.00;51.71;100912.63;5034195;28;20135;-70
2022/01/02 08:12:53;;;;;;;4.00;2.70;;;;;;;16.01;51.53;100919.84;5026355;28;20045;-71
2022/01/02 08:15:20;;;;;;;6.07;3.42;;;;;;;16.02;51.33;100907.88;5034284;28;20064;-75
2022/01/02 08:17:47;;;;;;;5.75;3.10;;;;;;;16.01;51.58;100908.88;5037981;28;20098;-74
2022/01/02 08:20:14;;;;;;;5.68;2.92;;;;;;;16.02;51.49;100907.88;5037888;28;20087;-74
2022/01/02 08:22:41;;;;;;;4.70;2.60;;;;;;;16.01;51.16;100897.06;5040960;28;20047;-73
2022/01/02 08:25:08;;;;;;;5.47;2.88;;;;;;;16.01;51.25;100908.03;5039524;28;20079;-73
2022/01/02 08:27:35;;;;;;;5.05;2.70;;;;;;;16.00;51.30;100898.94;5046806;28;20684;-73
2022/01/02 08:30:02;;;;;;;5.45;2.67;;;;;;;16.00;51.48;100915.38;5040286;28;20049;-73
2022/01/02 08:32:28;;;;;;;5.55;2.78;;;;;;;16.01;51.28;100908.03;5029743;28;20128;-73
2022/01/02 08:34:55;;;;;;;4.65;2.58;;;;;;;15.99;51.15;100898.06;5031693;28;20124;-73
2022/01/02 08:37:21;;;;;;;6.10;2.88;;;;;;;15.99;51.26;100889.84;5036986;28;20052;-73
2022/01/02 08:39:48;;;;;;;6.05;3.10;;;;;;;16.00;51.21;100887.97;5049083;28;20049;-73
2022/01/02 08:42:16;;;;;;;4.43;2.50;;;;;;;16.02;51.36;100896.06;5042661;28;20048;-74
2022/01/02 08:44:43;;;;;;;4.43;2.63;;;;;;;16.01;51.04;100886.97;5042601;28;20088;-74
2022/01/02 08:47:11;;;;;;;5.85;2.60;;;;;;;16.02;51.34;100905.16;5050915;28;20098;-73
2022/01/02 08:49:37;;;;;;;6.13;2.78;;;;;;;16.04;50.90;100908.63;5046088;28;20133;-76
2022/01/02 08:52:04;;;;;;;4.80;3.00;;;;;;;16.03;50.96;100925.19;5059257;28;20120;-73
2022/01/02 08:54:31;;;;;;;4.60;2.75;;;;;;;16.03;50.83;100912.38;5031883;28;20541;-73
2022/01/02 08:56:57;;;;;;;4.85;2.63;;;;;;;16.04;51.19;100919.59;5040585;28;20049;-73
2022/01/02 08:59:27;;;;;;;4.95;2.78;;;;;;;16.06;50.99;100883.84;5053528;28;20047;-73
2022/01/02 09:01:56;;;;;;;4.65;2.45;;;;;;;16.06;50.70;100931.25;5041275;28;20106;-73
2022/01/02 09:04:22;;;;;;;4.68;2.70;;;;;;;16.07;51.19;100904.72;5042706;28;20094;-73
2022/01/02 09:06:49;;;;;;;5.03;2.92;;;;;;;16.06;50.87;100912.06;5043801;28;20103;-73
2022/01/02 09:09:16;;;;;;;4.68;2.63;;;;;;;16.07;50.95;100946.69;5043886;28;20123;-73
2022/01/02 09:11:42;;;;;;;3.80;2.42;;;;;;;16.08;51.16;100925.63;5034302;28;20073;-72
2022/01/02 09:14:09;;;;;;;3.92;2.53;;;;;;;16.09;51.02;100903.59;5042936;28;20467;-73
2022/01/02 09:16:35;;;;;;;4.85;2.60;;;;;;;16.09;51.08;100920.03;5040848;28;20045;-71
2022/01/02 09:19:03;;;;;;;4.07;2.45;;;;;;;16.11;50.79;100919.91;5027229;28;20041;-73
2022/01/02 09:21:29;;;;;;;3.67;2.40;;;;;;;16.11;50.86;100915.28;5043950;28;20064;-71
2022/01/02 09:23:56;;;;;;;4.78;2.80;;;;;;;16.12;50.90;100895.13;5037238;28;20262;-72
2022/01/02 09:26:22;;;;;;;4.00;2.42;;;;;;;16.13;51.18;100896.84;5042791;28;21694;-72
2022/01/02 09:28:49;;;;;;;5.18;2.70;;;;;;;16.14;50.75;100898.56;5042408;28;20072;-72
2022/01/02 09:31:15;;;;;;;4.82;2.25;;;;;;;16.15;50.95;100902.16;5038012;28;20073;-73
2022/01/02 09:33:42;;;;;;;4.38;2.35;;;;;;;16.16;51.02;100917.59;5043472;28;20098;-73
2022/01/02 09:36:08;;;;;;;5.05;2.70;;;;;;;16.18;50.77;100927.44;5036565;28;20467;-72
2022/01/02 09:38:36;;;;;;;5.00;2.80;;;;;;;16.18;50.75;100919.22;5039861;28;20205;-71
2022/01/02 09:41:04;;;;;;;5.45;2.50;;;;;;;16.20;50.89;100943.75;5044816;28;20139;-70
2022/01/02 09:43:31;;;;;;;4.07;2.40;;;;;;;16.23;50.84;100930.63;5037825;28;20045;-70
2022/01/02 09:45:59;;;;;;;8.85;3.03;;;;;;;16.24;50.62;100906.81;5038789;28;20049;-71
2022/01/02 09:48:27;;;;;;;4.35;2.55;;;;;;;16.26;50.48;100902.97;5031750;28;20043;-68
2022/01/02 09:50:53;;;;;;;3.78;2.47;;;;;;;16.26;50.62;100902.97;5032057;28;20127;-71
2022/01/02 09:53:20;;;;;;;4.88;2.85;;;;;;;16.28;50.96;100925.63;5037149;28;20474;-71
2022/01/02 09:55:50;;;;;;;4.43;2.78;;;;;;;16.29;50.62;100921.88;5029633;28;20491;-71
2022/01/02 09:58:16;;;;;;;4.28;2.60;;;;;;;16.29;50.47;100942.91;5023199;28;20132;-71
2022/01/02 10:00:45;;;;;;;4.82;2.85;;;;;;;16.29;51.06;100948.41;5030990;28;20140;-71
2022/01/02 10:03:13;;;;;;;5.13;2.50;;;;;;;16.29;50.63;100949.28;5039542;28;20041;-71
2022/01/02 10:05:59;;;;;;;4.63;2.67;;;;;;;16.34;50.96;100948.84;5036937;28;20053;-71
2022/01/02 10:08:26;;;;;;;5.00;2.80;;;;;;;16.31;50.80;100952.72;5031087;28;20044;-71
2022/01/02 10:11:02;;;;;;;4.65;2.75;;;;;;;16.35;50.57;100942.38;5042508;28;20798;-71
2022/01/02 10:13:42;;;;;;;5.68;3.22;;;;;;;16.35;50.84;100953.31;5032172;28;20060;-71
2022/01/02 10:16:26;;;;;;;5.43;2.70;;;;;;;16.32;50.63;100959.06;5044406;28;20136;-71
2022/01/02 10:18:54;;;;;;;4.35;2.60;;;;;;;16.32;50.99;100965.41;5040630;28;20426;-71
2022/01/02 10:21:36;;;;;;;4.25;2.40;;;;;;;16.35;50.81;100976.13;5042551;28;20049;-71
2022/01/02 10:24:10;;;;;;;4.70;2.50;;;;;;;16.36;50.87;100964.16;5044255;28;20075;-71
2022/01/02 10:26:37;;;;;;;4.90;3.20;;;;;;;16.34;50.89;100949.72;5036658;28;20160;-70
2022/01/02 10:29:13;;;;;;;7.78;3.50;;;;;;;16.38;50.96;100947.59;5041453;28;20124;-71
2022/01/02 10:31:41;;;;;;;5.00;2.97;;;;;;;16.37;51.07;100940.34;5039718;28;20049;-71
2022/01/02 10:34:08;;;;;;;6.93;3.05;;;;;;;16.37;51.01;100932.13;5037881;28;20065;-71
2022/01/02 10:36:40;;;;;;;5.65;3.13;;;;;;;16.40;50.62;100928.22;5036615;28;20045;-71
2022/01/02 10:39:14;;;;;;;4.65;2.90;;;;;;;16.36;50.84;100920.31;5040745;28;20095;-71
2022/01/02 10:41:49;;;;;;;4.72;2.60;;;;;;;16.41;50.91;100925.38;5042380;28;20482;-70
2022/01/02 10:44:35;;;;;;;5.25;3.10;;;;;;;16.41;51.12;100919.88;5040119;28;20045;-71
2022/01/02 10:47:18;;;;;;;5.93;3.08;;;;;;;16.44;50.98;100924.22;5047789;28;20156;-71
2022/01/02 10:50:04;;;;;;;6.43;2.65;;;;;;;16.43;50.64;100915.13;5041995;28;20160;-71
2022/01/02 10:52:32;;;;;;;4.70;2.67;;;;;;;16.45;50.83;100920.47;5042625;28;20087;-71
2022/01/02 10:55:05;;;;;;;3.95;2.40;;;;;;;16.47;50.75;100902.03;5041293;28;20544;-71
2022/01/02 10:57:32;;;;;;;;;;;;;;;16.25;51.15;100905.81;5041352;28;20417;-71
2022/01/02 11:00:00;;;;;;;4.53;2.38;;;;;;;16.49;50.41;100897.25;5055466;28;20270;-71
2022/01/02 11:02:27;;;;;;;5.53;2.50;;;;;;;16.58;50.51;100891.81;5044589;28;20099;-71
2022/01/02 11:04:58;;;;;;;5.53;2.70;;;;;;;16.59;50.61;100918.22;5045128;28;20486;-71
2022/01/02 11:07:26;;;;;;;4.65;2.60;;;;;;;16.63;50.15;100906.03;5046589;28;20451;-70
2022/01/02 11:09:55;;;;;;;4.88;2.30;;;;;;;16.66;50.28;100919.44;5042357;28;20131;-71
2022/01/02 11:12:26;;;;;;;4.80;2.38;;;;;;;16.67;50.60;100934.00;5045743;28;20220;-71
2022/01/02 11:14:52;;;;;;;4.63;2.35;;;;;;;16.70;50.72;100925.50;5037355;28;20473;-71
2022/01/02 11:17:19;;;;;;;4.38;2.60;;;;;;;16.75;50.39;100923.19;5040079;28;20113;-71
2022/01/02 11:19:46;;;;;;;5.47;2.50;;;;;;;16.78;50.69;100922.94;5043686;28;20128;-71
2022/01/02 11:22:21;;;;;;;5.18;2.60;;;;;;;16.85;49.95;100917.75;5038559;28;20128;-71
2022/01/02 11:25:11;;;;;;;5.10;2.40;;;;;;;16.87;50.14;100916.59;5038842;28;20041;-71
2022/01/02 11:27:44;;;;;;;5.15;2.40;;;;;;;16.92;50.09;100935.38;5041421;28;20136;-71
2022/01/02 11:30:35;;;;;;;5.32;2.78;;;;;;;16.97;50.09;100920.22;5038948;28;20482;-71
2022/01/02 11:33:06;;;;;;;4.80;2.88;;;;;;;16.97;49.55;100922.94;5038479;28;20119;-71
2022/01/02 11:35:36;;;;;;;4.93;2.67;;;;;;;17.00;49.79;100928.16;5042355;28;20483;-72
2022/01/02 11:38:04;;;;;;;4.00;2.30;;;;;;;17.03;49.70;100932.50;5041361;28;20121;-71
2022/01/02 11:40:56;;;;;;;4.03;2.50;;;;;;;17.04;49.43;100915.91;5043197;28;20132;-71